Aérodrome :
LOGIN :

S'inscrire | Disclaimer

   EN    FR    IT 

 










Légende :    VFR   VFR Marginal   IFR   IFR Intensif   IFR Très Intensif
Visi : 
Plafond : 
>= 8 km
>= 3000ft
5 à 8 km
1000 à 3000 ft
1500m à 5 km
500 à 1000 ft
800 à 1500m
200 à 500 ft
< 800m
< 200 ft
Symboles :   Orages  Brouillard  Fortes neiges  Fortes précipitations  Vent > 20 kt
SIGMETs :   Divers  Orages  Givrage  Turbulence  Onde Orograph.  Cendres Volcan.







- Altitude de l'aérodrome : 10 ft
- Code IATA : AAL


EKYT - Aalborg

DERNIER METAR :
  • 171450Z AUTO 34005KT 310V020 9999NDV SCT200/// 29/10 Q1012

METARs EXPIRÉS :
  • 171420Z AUTO 35005KT 310V040 9999NDV FEW160/// 30/10 Q1012
  • 171350Z AUTO 32006KT 290V350 9999NDV FEW210/// 30/12 Q1012
  • 171320Z AUTO 33005KT 300V010 9999NDV FEW055/// 29/14 Q1012
  • 171250Z AUTO 33005KT 280V020 9999NDV FEW170/// 30/15 Q1012
  • 171220Z AUTO 24006KT 210V280 9999NDV FEW180/// 29/14 Q1012

TAF TAF EKYT
Valide du 17 à 15h jusqu'au 18 à 12h UTC


171427Z 1715/1812 VRB05KT 9999 SCT050 BKN160
TEMPO 1715/1801 VRB10G20KT 6000 TSRA BKN050CB
BECMG 1810/1812 30012KT
Pas de NOTAMs connus pour ce terrain.



MET'MAP, la Météo Aéronautique d'un coup d'oeil ! - Copyright ORBIFLY Décembre 2007 - Disclaimer

ORBIFLY MET'MAP TEAM :

Programmation & Développement : Alexandra Zaïnal
Conception & Développement : Baudouin d'Aumeries
Co-Programmation & Développement : Marc-Olivier Méhu
Soutien technique & logistique : Manuel Goepfert

Contact : metmap@orbifly.com




SOURCES & CREDITS :

   NOAA